Time;durP1;ratioP1;P1;durP2;ratioP2;P2;SDS_P1;SDS_P2;PMS_P1;PMS_P2;Temp;Humidity;BMP_temperature;BMP_pressure;BME280_temperature;BME280_humidity;BME280_pressure;Samples;Min_cycle;Max_cycle;Signal;HPM_P1;HPM_P2
2021/05/20 00:00:36;;;;;;;6.25;3.13;;;;;;;11.18;76.43;100829.00;3541246;40;20047;-54
2021/05/20 00:03:03;;;;;;;4.85;2.63;;;;;;;11.23;76.21;100832.53;3541462;40;20412;-54
2021/05/20 00:05:30;;;;;;;3.40;2.72;;;;;;;11.37;76.10;100840.59;3541817;40;20046;-55
2021/05/20 00:07:58;;;;;;;4.90;3.13;;;;;;;11.48;76.14;100842.59;3541664;40;20050;-55
2021/05/20 00:10:25;;;;;;;2.97;2.70;;;;;;;11.26;76.44;100842.88;3542711;40;20335;-55
2021/05/20 00:12:52;;;;;;;3.28;2.97;;;;;;;11.35;76.73;100843.13;3543191;40;20430;-54
2021/05/20 00:15:19;;;;;;;5.38;3.20;;;;;;;11.24;76.83;100843.69;3545567;40;20078;-52
2021/05/20 00:17:46;;;;;;;6.28;3.90;;;;;;;11.24;77.54;100851.38;3544507;40;20149;-52
2021/05/20 00:20:14;;;;;;;3.80;3.47;;;;;;;11.07;78.76;100833.88;3543455;40;20193;-53
2021/05/20 00:22:42;;;;;;;4.32;3.38;;;;;;;10.90;79.82;100843.66;3542970;40;20075;-52
2021/05/20 00:25:10;;;;;;;4.47;3.85;;;;;;;10.72;81.01;100838.03;3542079;40;20059;-47
2021/05/20 00:27:37;;;;;;;3.83;3.20;;;;;;;11.42;78.69;100842.47;3540296;40;20090;-52
2021/05/20 00:30:06;;;;;;;3.67;3.22;;;;;;;10.85;84.41;100839.25;3543538;40;20165;-55
2021/05/20 00:32:33;;;;;;;4.28;3.88;;;;;;;10.62;86.82;100831.81;3542236;40;20135;-55
2021/05/20 00:35:02;;;;;;;6.13;3.50;;;;;;;11.19;83.88;100831.63;3543057;40;20084;-56
2021/05/20 00:37:29;;;;;;;3.65;3.28;;;;;;;11.13;84.35;100834.00;3542441;40;20062;-54
2021/05/20 00:39:56;;;;;;;4.13;3.10;;;;;;;11.04;86.51;100843.16;3538741;40;20346;-55
2021/05/20 00:42:23;;;;;;;5.65;3.63;;;;;;;11.28;85.07;100842.91;3543168;40;20066;-52
2021/05/20 00:45:02;;;;;;;3.63;3.33;;;;;;;11.11;86.92;100857.88;3543245;40;20162;-56
2021/05/20 00:47:33;;;;;;;5.63;4.07;;;;;;;10.87;86.84;100853.84;3543118;40;20091;-57
2021/05/20 00:50:03;;;;;;;3.95;3.55;;;;;;;11.07;85.72;100850.94;3542801;40;20062;-55
2021/05/20 00:52:31;;;;;;;4.72;4.10;;;;;;;10.79;87.58;100850.19;3542004;40;20447;-54
2021/05/20 00:54:59;;;;;;;5.40;4.13;;;;;;;11.00;87.04;100854.16;3542223;40;20083;-57
2021/05/20 00:57:29;;;;;;;4.97;4.00;;;;;;;10.93;88.42;100853.13;3541030;40;20090;-53
2021/05/20 01:00:04;;;;;;;4.53;4.13;;;;;;;10.75;88.39;100857.75;3540780;40;20074;-52
2021/05/20 01:02:32;;;;;;;4.78;4.32;;;;;;;10.85;88.97;100860.59;3543394;40;20069;-49
2021/05/20 01:04:59;;;;;;;5.60;4.97;;;;;;;10.52;90.85;100852.84;3542668;40;20082;-55
2021/05/20 01:07:26;;;;;;;5.05;4.55;;;;;;;10.81;89.13;100861.34;3542031;40;20092;-56
2021/05/20 01:09:53;;;;;;;5.30;4.70;;;;;;;10.60;89.71;100859.06;3542294;40;20046;-56
2021/05/20 01:12:20;;;;;;;4.45;4.05;;;;;;;10.47;90.42;100853.56;3540953;40;20047;-52
2021/05/20 01:14:47;;;;;;;4.85;4.38;;;;;;;10.68;89.61;100861.88;3541951;40;20135;-52
2021/05/20 01:17:14;;;;;;;6.53;4.22;;;;;;;10.56;89.93;100858.94;3541691;40;20098;-55
2021/05/20 01:19:44;;;;;;;5.90;4.90;;;;;;;10.53;90.74;100857.16;3543625;40;20066;-54
2021/05/20 01:22:11;;;;;;;4.90;4.20;;;;;;;10.13;91.71;100852.56;3543525;40;20061;-56
2021/05/20 01:24:39;;;;;;;8.88;4.22;;;;;;;10.02;93.04;100866.69;3538099;40;20073;-49
2021/05/20 01:27:08;;;;;;;4.85;4.35;;;;;;;10.21;92.25;100866.41;3542334;40;20112;-58
2021/05/20 01:29:36;;;;;;;5.57;4.03;;;;;;;10.26;92.61;100871.69;3542391;40;20086;-54
2021/05/20 01:32:04;;;;;;;4.85;4.43;;;;;;;10.17;92.23;100873.16;3543421;40;20077;-58
2021/05/20 01:34:32;;;;;;;4.85;4.38;;;;;;;10.19;92.06;100873.19;3543253;40;20182;-57
2021/05/20 01:37:06;;;;;;;5.10;3.58;;;;;;;10.19;92.84;100878.31;3543099;40;20146;-57
2021/05/20 01:39:34;;;;;;;3.85;3.45;;;;;;;10.42;90.46;100873.91;3542262;40;20442;-54
2021/05/20 01:42:02;;;;;;;3.58;3.25;;;;;;;9.98;92.87;100881.06;3542707;40;20062;-52
2021/05/20 01:44:29;;;;;;;4.18;3.78;;;;;;;10.28;91.97;100883.75;3541667;40;20061;-52
2021/05/20 01:46:56;;;;;;;3.90;3.60;;;;;;;10.24;91.85;100889.59;3542834;40;20047;-49
2021/05/20 01:49:23;;;;;;;3.92;3.63;;;;;;;10.39;91.60;100884.91;3542098;40;20121;-54
2021/05/20 01:51:50;;;;;;;3.55;3.25;;;;;;;10.22;92.38;100880.97;3542379;40;20454;-50
2021/05/20 01:54:17;;;;;;;3.30;3.00;;;;;;;10.45;91.08;100879.13;3542095;40;20470;-53
2021/05/20 01:56:44;;;;;;;4.25;3.22;;;;;;;10.50;90.67;100887.81;3542533;40;20070;-54
2021/05/20 01:59:12;;;;;;;4.13;3.15;;;;;;;10.67;89.82;100885.72;3542340;40;20047;-54
2021/05/20 02:01:41;;;;;;;3.70;3.35;;;;;;;10.48;90.38;100891.13;3542227;40;20411;-53
2021/05/20 02:04:08;;;;;;;3.55;3.15;;;;;;;10.29;91.35;100885.47;3542519;40;20391;-53
2021/05/20 02:06:35;;;;;;;3.90;3.25;;;;;;;10.28;91.85;100888.00;3542592;40;20074;-53
2021/05/20 02:09:04;;;;;;;3.45;3.15;;;;;;;10.30;91.60;100882.06;3541774;40;20050;-53
2021/05/20 02:11:32;;;;;;;4.90;3.83;;;;;;;10.17;91.26;100882.53;3542255;40;20062;-56
2021/05/20 02:13:59;;;;;;;3.28;2.97;;;;;;;9.85;93.15;100881.53;3541549;40;20320;-52
2021/05/20 02:16:26;;;;;;;3.58;3.30;;;;;;;9.73;93.97;100874.31;3542270;40;20062;-49
2021/05/20 02:18:54;;;;;;;5.85;3.40;;;;;;;10.32;91.26;100883.00;3541844;40;20094;-54
2021/05/20 02:21:21;;;;;;;5.40;3.60;;;;;;;10.01;92.61;100888.84;3542402;40;20114;-52
2021/05/20 02:23:48;;;;;;;3.88;3.47;;;;;;;10.19;93.08;100891.09;3542001;40;20066;-55
2021/05/20 02:26:15;;;;;;;4.03;3.63;;;;;;;10.01;93.00;100888.84;3541587;40;20074;-50
2021/05/20 02:28:42;;;;;;;3.90;3.45;;;;;;;10.16;92.87;100891.00;3541636;40;20058;-53
2021/05/20 02:31:10;;;;;;;4.40;3.17;;;;;;;10.04;93.81;100885.53;3541550;40;20077;-51
2021/05/20 02:33:38;;;;;;;3.58;3.28;;;;;;;10.19;92.64;100886.00;3538377;40;20338;-53
2021/05/20 02:36:05;;;;;;;3.97;3.55;;;;;;;10.33;92.15;100889.84;3540833;40;20555;-52
2021/05/20 02:38:33;;;;;;;3.85;3.45;;;;;;;10.26;92.45;100887.97;3541822;40;20047;-56
2021/05/20 02:41:00;;;;;;;3.33;3.03;;;;;;;10.13;93.24;100885.81;3541766;40;20318;-51
2021/05/20 02:43:27;;;;;;;4.05;3.67;;;;;;;10.35;92.54;100887.34;3541556;40;20057;-53
2021/05/20 02:45:54;;;;;;;3.92;3.20;;;;;;;10.48;91.71;100898.81;3542140;40;20062;-54
2021/05/20 02:48:21;;;;;;;4.55;3.55;;;;;;;10.45;91.56;100894.50;3542348;40;20490;-52
2021/05/20 02:50:48;;;;;;;3.83;3.50;;;;;;;10.47;92.30;100900.50;3542043;40;20199;-56
2021/05/20 02:53:16;;;;;;;3.30;3.00;;;;;;;10.40;92.07;100901.16;3542050;40;20391;-54
2021/05/20 02:55:43;;;;;;;3.22;2.85;;;;;;;10.33;92.56;100900.09;3542315;40;20078;-57
2021/05/20 02:58:13;;;;;;;3.47;3.00;;;;;;;10.64;90.82;100901.00;3542233;40;20095;-57
2021/05/20 03:00:41;;;;;;;3.85;3.40;;;;;;;10.68;90.26;100901.13;3539438;40;20371;-54
2021/05/20 03:03:08;;;;;;;3.70;2.80;;;;;;;10.67;90.21;100904.50;3543604;40;20548;-55
2021/05/20 03:05:35;;;;;;;3.58;2.90;;;;;;;10.68;89.61;100905.41;3543242;40;22235;-54
2021/05/20 03:08:02;;;;;;;3.28;2.97;;;;;;;10.67;89.85;100907.06;3542432;40;20076;-54
2021/05/20 03:10:29;;;;;;;5.82;3.25;;;;;;;10.35;92.18;100913.84;3541917;40;20062;-54
2021/05/20 03:12:56;;;;;;;3.00;2.80;;;;;;;10.18;92.68;100910.72;3541544;40;20391;-52
2021/05/20 03:15:23;;;;;;;3.33;3.03;;;;;;;10.14;92.53;100914.00;3541818;40;20088;-57
2021/05/20 03:17:51;;;;;;;3.70;3.40;;;;;;;10.53;91.22;100917.72;3541518;40;20086;-54
2021/05/20 03:20:19;;;;;;;3.80;3.50;;;;;;;10.16;92.81;100920.00;3542160;40;20483;-56
2021/05/20 03:22:47;;;;;;;5.65;3.00;;;;;;;10.20;92.70;100921.84;3542004;40;20085;-56
2021/05/20 03:25:16;;;;;;;3.65;3.17;;;;;;;10.28;92.03;100917.00;3541885;40;20409;-54
2021/05/20 03:27:43;;;;;;;3.55;3.25;;;;;;;10.09;92.90;100919.81;3541831;40;20134;-56
2021/05/20 03:30:11;;;;;;;6.35;3.70;;;;;;;10.23;92.79;100918.53;3541740;40;20074;-54
2021/05/20 03:32:38;;;;;;;4.43;4.05;;;;;;;10.26;92.40;100921.22;3538441;40;20420;-56
2021/05/20 03:35:06;;;;;;;3.67;3.38;;;;;;;10.14;93.08;100925.94;3540966;40;20089;-54
2021/05/20 03:37:35;;;;;;;4.25;3.33;;;;;;;10.51;90.93;100929.63;3542426;40;20061;-56
2021/05/20 03:40:04;;;;;;;4.55;2.80;;;;;;;10.20;92.04;100926.97;3540721;40;20318;-54
2021/05/20 03:42:32;;;;;;;3.70;2.95;;;;;;;10.42;92.14;100928.53;3541639;40;20106;-53
2021/05/20 03:45:00;;;;;;;3.10;2.80;;;;;;;10.60;90.38;100932.47;3542815;40;20305;-58
2021/05/20 03:47:27;;;;;;;3.03;2.80;;;;;;;10.78;89.76;100932.13;3531896;40;20042;-51
2021/05/20 03:49:54;;;;;;;3.38;3.08;;;;;;;10.78;89.41;100934.69;3543391;40;20090;-54
2021/05/20 03:52:21;;;;;;;3.35;2.60;;;;;;;10.52;90.15;100931.38;3543191;40;20071;-56
2021/05/20 03:54:49;;;;;;;3.30;3.00;;;;;;;11.00;87.18;100933.59;3544777;40;20074;-53
2021/05/20 03:57:16;;;;;;;8.57;3.45;;;;;;;10.79;88.60;100929.59;3543298;40;20062;-54
2021/05/20 03:59:44;;;;;;;3.40;3.10;;;;;;;10.68;90.03;100937.00;3541936;40;20228;-59
2021/05/20 04:02:20;;;;;;;3.85;3.40;;;;;;;10.60;89.50;100935.03;3543302;40;20072;-57
2021/05/20 04:04:51;;;;;;;6.30;3.20;;;;;;;10.81;89.84;100935.63;3542940;40;20058;-58
2021/05/20 04:07:18;;;;;;;2.97;2.70;;;;;;;10.92;88.91;100947.06;3542046;40;20070;-54
2021/05/20 04:09:46;;;;;;;2.83;2.55;;;;;;;11.04;88.96;100949.09;3537430;40;20054;-56
2021/05/20 04:12:13;;;;;;;3.65;2.78;;;;;;;10.78;89.11;100948.38;3541222;40;20361;-54
2021/05/20 04:14:40;;;;;;;3.55;2.92;;;;;;;10.45;90.94;100950.81;3534809;40;20099;-57
2021/05/20 04:17:07;;;;;;;4.40;3.03;;;;;;;10.83;88.67;100954.50;3538606;40;20064;-55
2021/05/20 04:19:34;;;;;;;5.13;3.03;;;;;;;10.75;89.19;100952.53;3540054;40;20140;-55
2021/05/20 04:22:01;;;;;;;2.83;2.50;;;;;;;10.81;90.47;100956.13;3539939;40;20090;-55
2021/05/20 04:24:29;;;;;;;3.25;2.83;;;;;;;10.64;91.01;100959.91;3539817;40;20058;-51
2021/05/20 04:26:56;;;;;;;3.10;2.80;;;;;;;10.92;89.17;100959.88;3541174;40;20450;-56
2021/05/20 04:29:24;;;;;;;3.20;2.90;;;;;;;10.90;89.36;100960.66;3539974;40;20419;-52
2021/05/20 04:31:53;;;;;;;3.47;2.95;;;;;;;10.73;91.12;100957.63;3539786;40;20447;-52
2021/05/20 04:34:21;;;;;;;4.00;3.00;;;;;;;11.03;88.65;100964.44;3542295;40;20058;-55
2021/05/20 04:36:48;;;;;;;3.42;3.10;;;;;;;10.81;90.01;100961.25;3541678;40;20097;-58
2021/05/20 04:39:15;;;;;;;3.10;2.85;;;;;;;10.60;91.58;100971.75;3536407;40;20050;-57
2021/05/20 04:41:42;;;;;;;3.10;2.80;;;;;;;10.81;90.00;100968.94;3540595;40;20094;-55
2021/05/20 04:44:09;;;;;;;3.67;2.78;;;;;;;10.89;89.91;100974.28;3539949;40;20060;-54
2021/05/20 04:46:36;;;;;;;2.90;2.70;;;;;;;11.01;89.51;100977.22;3537858;40;20164;-53
2021/05/20 04:49:11;;;;;;;3.10;2.85;;;;;;;11.08;89.14;100980.81;3539608;40;20043;-51
2021/05/20 04:51:40;;;;;;;3.50;3.20;;;;;;;10.99;88.52;100978.84;3538453;40;20050;-54
2021/05/20 04:54:07;;;;;;;4.25;3.22;;;;;;;11.48;87.40;100987.91;3538571;40;20083;-55
2021/05/20 04:56:34;;;;;;;3.03;2.72;;;;;;;11.07;88.78;100982.50;3539714;40;20053;-55
2021/05/20 04:59:02;;;;;;;3.67;3.38;;;;;;;10.94;88.94;100977.84;3539365;40;20078;-55
2021/05/20 05:01:33;;;;;;;3.10;2.90;;;;;;;11.38;87.04;100978.25;3543086;40;20050;-47
2021/05/20 05:04:01;;;;;;;3.80;3.30;;;;;;;11.15;90.00;100980.16;3542965;40;20431;-54
2021/05/20 05:06:28;;;;;;;5.28;3.92;;;;;;;11.60;87.26;100977.97;3541666;40;20046;-56
2021/05/20 05:08:55;;;;;;;5.65;3.90;;;;;;;11.53;87.53;100978.63;3541591;40;20042;-55
2021/05/20 05:11:23;;;;;;;4.50;3.60;;;;;;;11.55;88.01;100976.97;3542825;40;20078;-56
2021/05/20 05:13:50;;;;;;;5.93;4.05;;;;;;;11.41;87.96;100983.44;3542103;40;20058;-55
2021/05/20 05:16:18;;;;;;;5.72;4.20;;;;;;;11.80;85.33;100983.63;3540911;40;20066;-53
2021/05/20 05:18:45;;;;;;;5.03;4.30;;;;;;;11.43;87.64;100987.78;3542614;40;20143;-55
2021/05/20 05:21:12;;;;;;;7.10;4.05;;;;;;;11.71;88.13;100991.06;3542432;40;20062;-55
2021/05/20 05:23:40;;;;;;;4.22;3.92;;;;;;;11.64;86.78;100987.47;3542465;40;20075;-50
2021/05/20 05:26:07;;;;;;;4.32;3.75;;;;;;;12.07;84.94;100982.59;3543869;40;20050;-57
2021/05/20 05:28:34;;;;;;;4.03;3.33;;;;;;;12.15;85.14;100991.34;3539878;40;20343;-52
2021/05/20 05:31:01;;;;;;;4.80;4.30;;;;;;;12.28;84.62;100985.66;3541967;40;20046;-54
2021/05/20 05:33:28;;;;;;;6.38;4.18;;;;;;;12.28;85.51;100988.22;3540556;40;20054;-55
2021/05/20 05:35:55;;;;;;;4.68;4.03;;;;;;;12.23;85.49;100997.53;3542247;40;20047;-57
2021/05/20 05:38:23;;;;;;;4.88;3.50;;;;;;;12.63;84.04;100993.31;3542116;40;20039;-59
2021/05/20 05:40:50;;;;;;;5.18;4.68;;;;;;;12.31;85.14;100997.72;3542413;40;20062;-56
2021/05/20 05:43:17;;;;;;;7.13;4.30;;;;;;;12.41;84.60;100995.38;3539883;40;20069;-53
2021/05/20 05:45:44;;;;;;;6.05;4.40;;;;;;;12.47;84.94;100997.22;3540360;40;20410;-58
2021/05/20 05:48:12;;;;;;;4.47;4.07;;;;;;;12.83;83.31;100993.75;3539281;40;20488;-54
2021/05/20 05:50:40;;;;;;;5.97;4.40;;;;;;;13.02;83.78;100997.56;3539541;40;20340;-56
2021/05/20 05:53:26;;;;;;;4.72;4.10;;;;;;;13.24;81.77;101002.34;3539174;40;20058;-54
2021/05/20 05:55:54;;;;;;;11.40;4.93;;;;;;;12.98;83.56;100994.91;3535275;40;20058;-53
2021/05/20 05:58:23;;;;;;;7.00;6.28;;;;;;;13.19;81.52;100998.78;3536135;40;20060;-48
2021/05/20 06:00:55;;;;;;;6.30;5.28;;;;;;;12.92;84.05;101001.66;3537392;40;20323;-49
2021/05/20 06:03:27;;;;;;;7.57;6.40;;;;;;;13.68;80.91;101005.75;3544607;40;20047;-56
2021/05/20 06:06:04;;;;;;;9.40;8.07;;;;;;;13.14;80.68;101011.53;3544739;40;20740;-56
2021/05/20 06:08:34;;;;;;;7.25;6.55;;;;;;;13.48;79.74;101001.94;3544553;40;20382;-54
2021/05/20 06:11:05;;;;;;;8.73;6.60;;;;;;;13.50;79.34;101003.72;3541860;40;20061;-55
2021/05/20 06:13:38;;;;;;;6.80;6.10;;;;;;;13.19;80.39;101017.63;3541315;40;20423;-55
2021/05/20 06:16:06;;;;;;;6.43;5.82;;;;;;;13.53;80.03;101009.75;3542095;40;20104;-54
2021/05/20 06:18:40;;;;;;;7.00;6.20;;;;;;;13.95;78.70;101015.66;3538615;40;20074;-54
2021/05/20 06:21:07;;;;;;;6.10;5.45;;;;;;;13.99;75.83;101017.44;3542490;40;20078;-53
2021/05/20 06:23:35;;;;;;;8.57;5.65;;;;;;;14.34;74.31;101019.72;3541622;40;20658;-52
2021/05/20 06:26:02;;;;;;;8.20;6.13;;;;;;;14.05;74.10;101010.66;3541864;40;20061;-50
2021/05/20 06:28:29;;;;;;;7.38;5.78;;;;;;;14.15;75.22;101017.72;3541989;40;20392;-56
2021/05/20 06:30:56;;;;;;;5.80;5.20;;;;;;;14.46;73.14;101019.91;3542277;40;20042;-56
2021/05/20 06:33:23;;;;;;;5.80;5.28;;;;;;;14.46;72.16;101025.06;3541619;40;20111;-59
2021/05/20 06:35:50;;;;;;;6.45;5.20;;;;;;;14.50;73.76;101024.28;3541316;40;20062;-59
2021/05/20 06:38:17;;;;;;;5.32;4.82;;;;;;;14.39;72.99;101027.53;3541740;40;20058;-51
2021/05/20 06:40:44;;;;;;;6.43;5.00;;;;;;;14.70;71.57;101023.75;3542117;40;20058;-49
2021/05/20 06:43:11;;;;;;;5.50;4.78;;;;;;;14.45;72.57;101032.78;3541759;40;20106;-55
2021/05/20 06:45:38;;;;;;;5.55;4.93;;;;;;;14.59;70.47;101035.59;3541819;40;20129;-55
2021/05/20 06:48:06;;;;;;;5.95;4.57;;;;;;;15.07;70.34;101039.69;3539097;40;20065;-54
2021/05/20 06:50:33;;;;;;;5.68;4.63;;;;;;;15.01;70.45;101041.34;3538311;40;20304;-59
2021/05/20 06:53:00;;;;;;;5.15;4.57;;;;;;;14.49;69.83;101045.75;3538273;40;20043;-54
2021/05/20 06:55:27;;;;;;;7.13;4.82;;;;;;;14.71;71.64;101048.66;3539533;40;20497;-57
2021/05/20 07:00:32;;;;;;;7.20;4.85;;;;;;;15.01;69.64;101050.78;3540055;40;20054;-52
2021/05/20 07:03:00;;;;;;;6.88;5.45;;;;;;;14.58;69.74;101052.75;3538693;40;20062;-53
2021/05/20 07:05:27;;;;;;;7.22;5.00;;;;;;;14.61;71.16;101057.13;3539086;40;20051;-56
2021/05/20 07:07:54;;;;;;;5.30;4.63;;;;;;;14.74;69.91;101052.16;3539661;40;20055;-58
2021/05/20 07:10:22;;;;;;;5.72;4.78;;;;;;;14.88;71.68;101048.88;3539373;40;20054;-57
2021/05/20 07:12:49;;;;;;;5.35;4.85;;;;;;;14.94;69.19;101059.31;3540434;40;20077;-58
2021/05/20 07:15:16;;;;;;;5.43;4.93;;;;;;;14.70;70.70;101059.81;3539888;40;20050;-54
2021/05/20 07:17:43;;;;;;;4.97;4.55;;;;;;;15.10;68.50;101057.78;3540088;40;20058;-58
2021/05/20 07:20:11;;;;;;;6.30;4.18;;;;;;;15.02;70.24;101053.41;3539265;40;20693;-56
2021/05/20 07:22:38;;;;;;;4.72;4.32;;;;;;;14.85;68.65;101060.03;3539224;40;20077;-55
2021/05/20 07:25:06;;;;;;;6.60;4.28;;;;;;;15.25;67.81;101056.28;3539876;40;20309;-55
2021/05/20 07:27:33;;;;;;;4.45;4.05;;;;;;;15.20;68.81;101057.03;3539598;40;20054;-57
2021/05/20 07:30:01;;;;;;;4.40;4.00;;;;;;;15.09;69.53;101062.06;3538620;40;20062;-55
2021/05/20 07:32:29;;;;;;;7.95;4.32;;;;;;;15.79;66.86;101060.34;3539421;40;20478;-59
2021/05/20 07:35:01;;;;;;;3.97;3.60;;;;;;;15.61;64.35;101056.66;3538382;40;20097;-59
2021/05/20 07:37:29;;;;;;;7.88;3.85;;;;;;;15.44;65.59;101056.50;3538835;40;20047;-52
2021/05/20 07:39:56;;;;;;;6.90;4.20;;;;;;;15.42;63.88;101056.47;3540053;40;20051;-56
2021/05/20 07:42:23;;;;;;;4.35;3.65;;;;;;;15.41;65.53;101064.19;3539690;40;20059;-55
2021/05/20 07:44:54;;;;;;;4.13;3.42;;;;;;;15.46;65.05;101065.97;3539493;40;20090;-50
2021/05/20 07:47:22;;;;;;;4.55;3.80;;;;;;;15.17;66.45;101054.44;3537041;40;20045;-54
2021/05/20 07:49:50;;;;;;;6.15;4.18;;;;;;;15.67;63.85;101060.25;3539025;40;20058;-53
2021/05/20 07:52:19;;;;;;;3.55;3.20;;;;;;;15.95;62.78;101057.94;3539343;40;20065;-54
2021/05/20 07:54:47;;;;;;;8.18;3.78;;;;;;;15.78;63.91;101056.03;3544072;40;20065;-55
2021/05/20 07:57:14;;;;;;;4.15;3.75;;;;;;;16.12;61.34;101065.81;3542165;40;20054;-52
2021/05/20 07:59:41;;;;;;;4.32;3.15;;;;;;;15.85;61.85;101056.94;3544560;40;20070;-53
2021/05/20 08:02:18;;;;;;;3.92;3.25;;;;;;;16.11;60.42;101057.22;3542558;40;20090;-54
2021/05/20 08:04:48;;;;;;;4.05;3.60;;;;;;;16.58;59.56;101058.44;3543120;40;20085;-60
2021/05/20 08:07:31;;;;;;;8.95;4.47;;;;;;;16.51;59.92;101061.00;3542082;40;20135;-57
2021/05/20 08:12:37;;;;;;;5.03;3.55;;;;;;;16.84;58.75;101066.41;3547190;40;20068;-57
2021/05/20 08:15:06;;;;;;;4.53;3.05;;;;;;;16.78;61.00;101064.66;3544445;40;20060;-61
2021/05/20 08:17:33;;;;;;;4.40;3.50;;;;;;;16.76;60.69;101064.63;3547135;40;20464;-56
2021/05/20 08:20:02;;;;;;;6.30;3.85;;;;;;;16.34;59.71;101066.88;3549132;39;20303;-52
2021/05/20 08:22:36;;;;;;;5.60;4.00;;;;;;;16.92;57.39;101062.16;3539752;40;20053;-51
2021/05/20 08:25:04;;;;;;;7.55;3.63;;;;;;;16.86;58.20;101068.13;3545950;40;20094;-55
2021/05/20 08:27:33;;;;;;;3.40;2.53;;;;;;;16.90;56.85;101069.03;3540983;40;20062;-51
2021/05/20 08:30:01;;;;;;;4.38;3.08;;;;;;;16.86;56.10;101070.72;3541220;40;20189;-54
2021/05/20 08:32:28;;;;;;;3.80;2.80;;;;;;;16.41;56.97;101066.09;3540636;40;20110;-61
2021/05/20 08:34:55;;;;;;;3.22;2.50;;;;;;;16.89;56.14;101069.88;3541876;40;20363;-51
2021/05/20 08:37:22;;;;;;;4.63;2.53;;;;;;;17.27;53.62;101064.91;3543730;40;20082;-52
2021/05/20 08:39:50;;;;;;;3.60;2.35;;;;;;;18.06;54.19;101072.91;3545666;40;20055;-54
2021/05/20 08:42:17;;;;;;;2.75;2.35;;;;;;;18.22;53.33;101071.19;3544244;40;20353;-53
2021/05/20 08:44:45;;;;;;;4.45;2.30;;;;;;;17.64;54.29;101068.47;3544661;40;20401;-53
2021/05/20 08:47:12;;;;;;;3.38;2.30;;;;;;;17.75;52.07;101066.81;3539382;40;20046;-52
2021/05/20 08:49:40;;;;;;;5.47;2.58;;;;;;;17.90;52.76;101071.16;3545771;40;20062;-54
2021/05/20 08:52:07;;;;;;;3.78;2.55;;;;;;;17.58;53.26;101065.88;3552173;40;20058;-47
2021/05/20 08:54:46;;;;;;;4.28;2.45;;;;;;;17.37;52.87;101070.97;3541037;40;20058;-50
2021/05/20 08:57:15;;;;;;;4.43;2.30;;;;;;;17.16;55.72;101074.34;3548307;40;20264;-48
2021/05/20 08:59:43;;;;;;;4.13;2.40;;;;;;;17.10;54.60;101072.59;3554728;40;20044;-51
2021/05/20 09:02:22;;;;;;;4.03;2.03;;;;;;;17.73;52.70;101080.59;3556339;40;20057;-49
2021/05/20 09:05:00;;;;;;;2.88;2.10;;;;;;;18.26;51.27;101077.25;3541815;40;20042;-50
2021/05/20 09:07:34;;;;;;;2.35;2.15;;;;;;;17.64;51.17;101073.66;3538676;40;20519;-46
2021/05/20 09:10:10;;;;;;;3.78;2.53;;;;;;;17.72;53.25;101082.31;3541181;40;20094;-51
2021/05/20 09:12:41;;;;;;;6.60;2.92;;;;;;;17.95;52.51;101074.63;3551553;40;20080;-54
2021/05/20 09:15:23;;;;;;;2.92;2.10;;;;;;;17.51;54.79;101082.25;3543058;40;20146;-44
2021/05/20 09:17:51;;;;;;;3.47;2.40;;;;;;;17.91;53.60;101082.41;3542853;40;20054;-53
2021/05/20 09:20:32;;;;;;;2.45;2.00;;;;;;;17.56;54.15;101084.00;3541980;40;20382;-48
2021/05/20 09:23:17;;;;;;;2.55;2.28;;;;;;;17.46;53.04;101083.94;3544539;40;20047;-48
2021/05/20 09:25:47;;;;;;;5.07;2.67;;;;;;;17.64;52.48;101077.97;3548169;40;20304;-54
2021/05/20 09:28:19;;;;;;;3.47;2.08;;;;;;;17.51;54.85;101080.50;3543368;40;20046;-60
2021/05/20 09:30:48;;;;;;;3.92;1.58;;;;;;;17.90;53.56;101075.50;3547098;40;20327;-56
2021/05/20 09:33:17;;;;;;;1.73;1.60;;;;;;;18.28;53.02;101071.19;3543103;40;20058;-57
2021/05/20 09:35:49;;;;;;;2.85;1.77;;;;;;;17.78;50.54;101073.72;3543386;40;20058;-56
2021/05/20 09:38:25;;;;;;;2.22;1.83;;;;;;;19.09;49.07;101080.63;3543778;40;20076;-57
2021/05/20 09:40:57;;;;;;;3.38;1.52;;;;;;;18.73;46.36;101076.41;3541639;40;20359;-53
2021/05/20 09:43:32;;;;;;;1.20;0.90;;;;;;;18.53;47.13;101074.66;3544046;40;20046;-51
2021/05/20 09:46:11;;;;;;;1.30;1.20;;;;;;;19.06;46.33;101078.03;3541638;40;20370;-50
2021/05/20 09:48:41;;;;;;;2.53;0.93;;;;;;;19.20;46.24;101072.81;3543822;40;20086;-54
2021/05/20 09:51:25;;;;;;;2.05;1.20;;;;;;;18.46;47.45;101072.91;3546346;40;20074;-54
2021/05/20 09:53:55;;;;;;;2.05;1.25;;;;;;;18.12;47.52;101066.88;3541607;40;20058;-56
2021/05/20 09:56:40;;;;;;;2.35;1.05;;;;;;;19.99;45.62;101072.41;3541823;40;20066;-49
2021/05/20 09:59:12;;;;;;;1.30;0.95;;;;;;;19.97;46.79;101078.50;3546005;40;20057;-60
2021/05/20 10:01:42;;;;;;;1.55;0.70;;;;;;;19.54;45.94;101082.16;3541573;40;20065;-59
2021/05/20 10:04:29;;;;;;;1.27;1.10;;;;;;;18.40;47.34;101070.34;3546304;40;20090;-57
2021/05/20 10:06:57;;;;;;;1.67;1.58;;;;;;;21.16;41.90;101071.34;3543186;40;20045;-59
2021/05/20 10:09:25;;;;;;;1.85;1.00;;;;;;;23.51;35.41;101066.59;3544269;40;20054;-59
2021/05/20 10:11:52;;;;;;;1.95;1.00;;;;;;;23.02;36.58;101078.94;3550232;40;20053;-55
2021/05/20 10:14:25;;;;;;;2.83;1.15;;;;;;;22.18;37.87;101074.31;3547021;40;20743;-57
2021/05/20 10:16:53;;;;;;;2.38;1.30;;;;;;;21.24;39.67;101077.31;3547672;40;20177;-56
2021/05/20 10:19:20;;;;;;;3.17;1.10;;;;;;;19.54;42.86;101070.91;3547246;40;20054;-54
2021/05/20 10:21:48;;;;;;;2.92;1.30;;;;;;;24.07;36.10;101082.78;3551385;40;20048;-56
2021/05/20 10:24:16;;;;;;;2.63;1.10;;;;;;;26.09;33.58;101085.91;3542523;40;20057;-54
2021/05/20 10:26:46;;;;;;;3.85;1.10;;;;;;;24.45;34.28;101081.91;3542229;40;20083;-51
2021/05/20 10:29:13;;;;;;;1.42;1.00;;;;;;;23.51;36.48;101088.38;3540704;40;20081;-53
2021/05/20 10:31:43;;;;;;;1.75;1.00;;;;;;;23.16;36.03;101080.41;3542649;40;20046;-56
2021/05/20 10:34:14;;;;;;;3.03;1.40;;;;;;;21.75;37.48;101083.63;3541539;40;20083;-56
2021/05/20 10:37:06;;;;;;;4.00;1.45;;;;;;;19.42;42.42;101074.44;3540335;40;20069;-52
2021/05/20 10:39:35;;;;;;;2.03;1.45;;;;;;;19.61;43.68;101064.84;3541586;40;20098;-55
2021/05/20 10:42:03;;;;;;;2.88;1.40;;;;;;;19.05;43.64;101063.34;3538798;40;20886;-60
2021/05/20 10:44:30;;;;;;;1.58;1.48;;;;;;;19.64;43.58;101063.97;3541610;40;20066;-54
2021/05/20 10:46:58;;;;;;;1.92;1.50;;;;;;;21.05;40.64;101074.06;3541418;40;20057;-59
2021/05/20 10:49:48;;;;;;;5.13;1.40;;;;;;;25.11;34.36;101073.13;3541099;40;20098;-55
2021/05/20 10:52:48;;;;;;;2.60;0.98;;;;;;;25.94;30.87;101073.28;3544356;40;20050;-55
2021/05/20 10:55:16;;;;;;;3.30;1.50;;;;;;;26.55;30.21;101063.41;3542869;40;20058;-58
2021/05/20 10:57:46;;;;;;;1.63;1.02;;;;;;;28.77;27.83;101070.50;3544595;40;20082;-54
2021/05/20 11:00:39;;;;;;;5.10;1.52;;;;;;;29.78;24.61;101068.53;3537826;40;20516;-53
2021/05/20 11:03:09;;;;;;;1.95;1.00;;;;;;;29.14;25.28;101066.25;3545993;40;20397;-55
2021/05/20 11:05:43;;;;;;;2.60;1.13;;;;;;;27.11;28.46;101057.91;3546963;40;20054;-59
2021/05/20 11:08:37;;;;;;;4.43;1.38;;;;;;;28.95;26.91;101065.34;3569594;22;20131;-55
2021/05/20 11:11:09;;;;;;;2.25;1.30;;;;;;;28.46;25.75;101062.22;3529106;40;20277;-54
2021/05/20 11:13:44;;;;;;;2.05;0.85;;;;;;;31.51;23.07;101071.97;3528398;40;20064;-55
2021/05/20 11:16:27;;;;;;;2.55;0.85;;;;;;;29.96;24.50;101058.88;3528277;40;20043;-58
2021/05/20 11:19:20;;;;;;;1.42;0.90;;;;;;;30.34;23.18;101056.13;3519196;40;20148;-54
2021/05/20 11:21:59;;;;;;;1.52;0.80;;;;;;;31.94;22.26;101063.31;3518466;40;20055;-52
2021/05/20 11:24:32;;;;;;;1.58;0.98;;;;;;;30.04;23.50;101040.81;3518302;40;20043;-53
2021/05/20 11:27:14;;;;;;;1.80;1.00;;;;;;;31.49;23.02;101053.50;3518486;40;20067;-58
2021/05/20 11:29:44;;;;;;;2.05;0.98;;;;;;;32.49;21.00;101051.25;3519730;40;20719;-54
2021/05/20 11:32:20;;;;;;;1.17;0.88;;;;;;;31.34;22.55;101046.44;3518332;40;20047;-54
2021/05/20 11:37:24;;;;;;;0.70;0.63;;;;;;;27.49;24.34;101015.25;3518606;40;20054;-49
2021/05/20 11:39:52;;;;;;;10.73;1.30;;;;;;;29.60;22.74;101038.59;3519210;40;20058;-56
2021/05/20 11:42:33;;;;;;;2.55;0.70;;;;;;;27.04;26.10;101021.31;3518313;40;20328;-56